createdAt,value
2019-02-02T00:02:23.936Z,54.93
2019-02-02T00:04:52.430Z,51.43
2019-02-02T00:07:22.390Z,57.70
2019-02-02T00:09:50.943Z,55.23
2019-02-02T00:12:20.199Z,55.97
2019-02-02T00:14:49.298Z,52.37
2019-02-02T00:17:18.911Z,53.90
2019-02-02T00:19:47.505Z,53.90
2019-02-02T00:22:15.912Z,59.03
2019-02-02T00:24:44.030Z,55.73
2019-02-02T00:27:12.484Z,57.90
2019-02-02T00:29:40.793Z,54.70
2019-02-02T00:32:08.974Z,54.03
2019-02-02T00:34:37.008Z,60.73
2019-02-02T00:37:05.020Z,49.80
2019-02-02T00:39:33.405Z,51.37
2019-02-02T00:42:01.954Z,50.73
2019-02-02T00:44:30.679Z,55.10
2019-02-02T00:46:58.862Z,53.17
2019-02-02T00:49:27.181Z,57.47
2019-02-02T00:51:55.583Z,54.97
2019-02-02T00:54:23.838Z,57.23
2019-02-02T00:56:52.621Z,63.33
2019-02-02T00:59:20.870Z,64.07
2019-02-02T01:01:49.213Z,56.13
2019-02-02T01:04:17.650Z,58.40
2019-02-02T01:06:45.643Z,104.37
2019-02-02T01:09:20.105Z,59.87
2019-02-02T01:11:47.980Z,63.07
2019-02-02T01:14:16.831Z,57.70
2019-02-02T01:16:45.958Z,64.10
2019-02-02T01:19:14.071Z,71.23
2019-02-02T01:21:42.641Z,65.17
2019-02-02T01:24:10.765Z,52.90
2019-02-02T01:26:39.067Z,49.23
2019-02-02T01:29:07.731Z,57.23
2019-02-02T01:31:35.745Z,64.87
2019-02-02T01:34:04.628Z,70.17
2019-02-02T01:36:32.451Z,64.80
2019-02-02T01:39:00.861Z,63.10
2019-02-02T01:41:28.804Z,58.83
2019-02-02T01:43:56.863Z,55.23
2019-02-02T01:46:25.184Z,50.13
2019-02-02T01:48:53.312Z,57.37
2019-02-02T01:51:21.317Z,62.27
2019-02-02T01:53:49.573Z,67.57
2019-02-02T01:56:18.334Z,76.33
2019-02-02T01:58:46.703Z,70.47
2019-02-02T02:01:15.026Z,61.80
2019-02-02T02:03:43.084Z,73.80
2019-02-02T02:06:11.231Z,62.63
2019-02-02T02:08:39.293Z,75.73
2019-02-02T02:11:07.838Z,61.90
2019-02-02T02:13:35.810Z,62.37
2019-02-02T02:16:03.858Z,78.27
2019-02-02T02:18:31.836Z,74.03
2019-02-02T02:21:00.352Z,69.10
2019-02-02T02:23:29.275Z,77.70
2019-02-02T02:25:58.169Z,71.67
2019-02-02T02:28:28.068Z,86.07
2019-02-02T02:30:57.294Z,82.40
2019-02-02T02:33:25.574Z,81.80
2019-02-02T02:35:53.618Z,66.27
2019-02-02T02:38:22.216Z,61.03
2019-02-02T02:40:50.692Z,65.10
2019-02-02T02:43:18.710Z,62.47
2019-02-02T02:45:46.683Z,69.70
2019-02-02T02:48:15.422Z,63.73
2019-02-02T02:50:44.713Z,59.33
2019-02-02T02:53:12.883Z,53.30
2019-02-02T02:55:40.731Z,56.47
2019-02-02T02:58:08.677Z,57.40
2019-02-02T03:00:37.204Z,58.67
2019-02-02T03:03:05.417Z,60.00
2019-02-02T03:05:34.598Z,63.87
2019-02-02T03:08:02.758Z,64.43
2019-02-02T03:10:31.012Z,69.67
2019-02-02T03:12:58.897Z,65.90
2019-02-02T03:15:27.461Z,69.67
2019-02-02T03:17:55.733Z,67.73
2019-02-02T03:20:24.103Z,64.70
2019-02-02T03:22:52.497Z,57.03
2019-02-02T03:25:22.704Z,54.27
2019-02-02T03:27:50.646Z,52.07
2019-02-02T03:30:19.453Z,52.10
2019-02-02T03:32:47.607Z,54.27
2019-02-02T03:35:18.802Z,45.47
2019-02-02T03:37:46.909Z,46.93
2019-02-02T03:40:18.665Z,47.47
2019-02-02T03:42:47.291Z,44.53
2019-02-02T03:45:18.752Z,43.13
2019-02-02T03:47:47.460Z,46.33
2019-02-02T03:50:16.011Z,41.73
2019-02-02T03:52:44.739Z,41.20
2019-02-02T03:55:13.940Z,44.93
2019-02-02T03:57:42.459Z,43.00
2019-02-02T04:00:15.038Z,46.97
2019-02-02T04:02:43.006Z,41.37
2019-02-02T04:05:15.098Z,45.93
2019-02-02T04:07:43.416Z,40.90
2019-02-02T04:10:12.251Z,43.17
2019-02-02T04:12:40.921Z,37.80
2019-02-02T04:15:10.221Z,43.33
2019-02-02T04:17:38.805Z,39.10
2019-02-02T04:20:14.771Z,41.70
2019-02-02T04:22:43.114Z,37.03
2019-02-02T04:25:12.549Z,36.93
2019-02-02T04:27:40.914Z,36.10
2019-02-02T04:30:13.829Z,36.43
2019-02-02T04:32:42.358Z,35.37
2019-02-02T04:35:10.703Z,41.23
2019-02-02T04:37:38.977Z,43.87
2019-02-02T04:40:08.147Z,39.87
2019-02-02T04:42:36.240Z,39.23
2019-02-02T04:45:06.418Z,35.97
2019-02-02T04:47:34.592Z,35.93
2019-02-02T04:50:03.047Z,35.80
2019-02-02T04:52:30.918Z,35.77
2019-02-02T04:54:59.688Z,32.67
2019-02-02T04:57:28.248Z,34.97
2019-02-02T04:59:56.578Z,38.63
2019-02-02T05:02:25.411Z,32.47
2019-02-02T05:04:53.744Z,32.97
2019-02-02T05:07:22.766Z,29.50
2019-02-02T05:09:51.493Z,31.80
2019-02-02T05:12:19.703Z,32.93
2019-02-02T05:14:47.843Z,34.43
2019-02-02T05:17:15.780Z,37.43
2019-02-02T05:19:44.173Z,36.80
2019-02-02T05:22:12.002Z,35.37
2019-02-02T05:24:39.978Z,35.10
2019-02-02T05:27:07.835Z,37.47
2019-02-02T05:29:41.598Z,42.70
2019-02-02T05:32:06.460Z,38.27
2019-02-02T05:34:34.948Z,38.83
2019-02-02T05:37:02.912Z,39.90
2019-02-02T05:39:31.492Z,39.20
2019-02-02T05:42:00.144Z,34.40
2019-02-02T05:44:28.350Z,36.27
2019-02-02T05:46:56.606Z,37.97
2019-02-02T05:49:27.006Z,36.03
2019-02-02T05:51:55.745Z,37.23
2019-02-02T05:54:23.933Z,34.40
2019-02-02T05:56:52.901Z,33.47
2019-02-02T05:59:20.973Z,33.87
2019-02-02T06:01:49.449Z,31.30
2019-02-02T06:04:18.438Z,31.17
2019-02-02T06:06:47.022Z,29.37
2019-02-02T06:09:15.728Z,32.17
2019-02-02T06:11:43.923Z,29.83
2019-02-02T06:14:12.570Z,31.20
2019-02-02T06:16:40.739Z,33.93
2019-02-02T06:19:09.220Z,33.80
2019-02-02T06:21:37.903Z,32.23
2019-02-02T06:24:06.491Z,33.50
2019-02-02T06:26:34.311Z,37.23
2019-02-02T06:29:02.925Z,33.77
2019-02-02T06:31:30.738Z,36.80
2019-02-02T06:33:58.956Z,32.00
2019-02-02T06:36:27.340Z,33.93
2019-02-02T06:38:55.509Z,33.20
2019-02-02T06:41:24.401Z,39.20
2019-02-02T06:43:52.760Z,33.20
2019-02-02T06:46:21.450Z,30.53
2019-02-02T06:48:50.240Z,30.60
2019-02-02T06:51:18.270Z,32.43
2019-02-02T06:53:46.506Z,36.83
2019-02-02T06:56:15.052Z,31.67
2019-02-02T06:58:43.662Z,34.40
2019-02-02T07:01:11.914Z,35.90
2019-02-02T07:03:40.808Z,32.93
2019-02-02T07:06:09.576Z,29.90
2019-02-02T07:08:38.266Z,32.40
2019-02-02T07:11:06.552Z,30.07
2019-02-02T07:13:36.124Z,32.93
2019-02-02T07:16:04.811Z,34.07
2019-02-02T07:18:33.443Z,31.33
2019-02-02T07:21:01.475Z,30.60
2019-02-02T07:23:45.802Z,32.27
2019-02-02T07:26:14.343Z,28.83
2019-02-02T07:28:48.098Z,29.53
2019-02-02T07:31:16.321Z,30.00
2019-02-02T07:33:44.572Z,34.83
2019-02-02T07:36:15.138Z,32.07
2019-02-02T07:38:43.604Z,34.63
2019-02-02T07:41:12.290Z,33.40
2019-02-02T07:43:41.361Z,33.97
2019-02-02T07:46:14.941Z,31.83
2019-02-02T07:48:42.194Z,40.90
2019-02-02T07:51:11.917Z,38.00
2019-02-02T07:53:40.395Z,38.37
2019-02-02T07:56:08.661Z,38.07
2019-02-02T07:58:36.938Z,39.50
2019-02-02T08:01:04.933Z,36.63
2019-02-02T08:03:33.099Z,36.90
2019-02-02T08:06:01.299Z,39.97
2019-02-02T08:08:30.355Z,36.73
2019-02-02T08:10:59.188Z,37.80
2019-02-02T08:13:27.927Z,36.30
2019-02-02T08:15:57.046Z,36.93
2019-02-02T08:18:25.675Z,38.23
2019-02-02T08:20:54.528Z,36.03
2019-02-02T08:23:22.631Z,32.03
2019-02-02T08:25:51.356Z,31.10
2019-02-02T08:28:21.814Z,29.87
2019-02-02T08:30:52.433Z,32.20
2019-02-02T08:33:20.695Z,31.33
2019-02-02T08:35:50.665Z,36.67
2019-02-02T08:38:19.471Z,29.70
2019-02-02T08:40:47.437Z,33.37
2019-02-02T08:43:15.878Z,43.33
2019-02-02T08:45:43.742Z,37.80
2019-02-02T08:48:12.464Z,38.20
2019-02-02T08:50:41.038Z,35.03
2019-02-02T08:53:09.387Z,28.37
2019-02-02T08:55:38.821Z,31.70
2019-02-02T08:58:10.804Z,29.97
2019-02-02T09:00:38.855Z,26.83
2019-02-02T09:03:22.367Z,26.70
2019-02-02T09:05:51.122Z,25.80
2019-02-02T09:08:20.753Z,22.63
2019-02-02T09:10:49.348Z,20.73
2019-02-02T09:13:18.174Z,20.93
2019-02-02T09:15:46.976Z,22.73
2019-02-02T09:18:15.748Z,22.23
2019-02-02T09:20:48.887Z,21.43
2019-02-02T09:23:16.866Z,22.13
2019-02-02T09:25:44.909Z,20.43
2019-02-02T09:28:14.077Z,23.13
2019-02-02T09:30:42.426Z,25.90
2019-02-02T09:33:10.541Z,27.00
2019-02-02T09:35:39.765Z,28.23
2019-02-02T09:38:08.252Z,25.73
2019-02-02T09:40:36.833Z,24.43
2019-02-02T09:43:05.428Z,23.27
2019-02-02T09:45:33.847Z,23.90
2019-02-02T09:48:02.166Z,21.20
2019-02-02T09:50:29.989Z,24.60
2019-02-02T09:52:57.882Z,23.83
2019-02-02T09:55:26.482Z,23.27
2019-02-02T09:57:58.657Z,21.43
2019-02-02T10:00:29.424Z,20.97
2019-02-02T10:02:58.221Z,19.50
2019-02-02T10:05:27.075Z,18.77
2019-02-02T10:07:55.845Z,17.07
2019-02-02T10:10:26.407Z,18.47
2019-02-02T10:12:55.085Z,22.13
2019-02-02T10:15:23.652Z,24.23
2019-02-02T10:17:51.905Z,22.63
2019-02-02T10:20:22.568Z,23.47
2019-02-02T10:22:51.527Z,23.63
2019-02-02T10:25:25.855Z,22.00
2019-02-02T10:27:54.193Z,22.00
2019-02-02T10:30:25.995Z,19.50
2019-02-02T10:32:53.940Z,19.03
2019-02-02T10:35:22.257Z,17.80
2019-02-02T10:37:50.624Z,19.13
2019-02-02T10:40:19.537Z,19.17
2019-02-02T10:42:48.194Z,16.87
2019-02-02T10:45:16.445Z,17.20
2019-02-02T10:47:46.014Z,16.77
2019-02-02T10:50:15.708Z,18.23
2019-02-02T10:52:44.290Z,16.83
2019-02-02T10:55:12.772Z,16.27
2019-02-02T10:57:41.091Z,18.43
2019-02-02T11:00:20.069Z,16.83
2019-02-02T11:02:48.534Z,17.07
2019-02-02T11:05:16.812Z,16.43
2019-02-02T11:07:45.639Z,15.87
2019-02-02T11:10:18.395Z,18.93
2019-02-02T11:12:46.913Z,15.00
2019-02-02T11:15:15.956Z,16.77
2019-02-02T11:17:45.987Z,20.43
2019-02-02T11:20:20.079Z,21.07
2019-02-02T11:22:48.909Z,19.77
2019-02-02T11:25:19.369Z,20.47
2019-02-02T11:27:48.029Z,21.50
2019-02-02T11:30:18.745Z,18.47
2019-02-02T11:32:47.443Z,16.97
2019-02-02T11:35:16.031Z,17.37
2019-02-02T11:37:43.981Z,13.53
2019-02-02T11:40:22.080Z,15.43
2019-02-02T11:42:50.275Z,13.37
2019-02-02T11:45:18.531Z,12.23
2019-02-02T11:47:46.721Z,13.07
2019-02-02T11:50:15.896Z,12.53
2019-02-02T11:52:45.062Z,11.77
2019-02-02T11:55:14.626Z,11.63
2019-02-02T11:57:43.216Z,12.43
2019-02-02T12:00:30.299Z,12.23
2019-02-02T12:02:59.202Z,14.13
2019-02-02T12:05:28.853Z,12.07
2019-02-02T12:08:00.486Z,14.37
2019-02-02T12:10:29.718Z,12.63
2019-02-02T12:12:58.350Z,13.47
2019-02-02T12:15:28.151Z,17.70
2019-02-02T12:17:56.641Z,19.97
2019-02-02T12:20:27.772Z,26.37
2019-02-02T12:22:57.978Z,24.67
2019-02-02T12:25:27.580Z,24.57
2019-02-02T12:27:55.972Z,23.33
2019-02-02T12:30:31.119Z,26.57
2019-02-02T12:33:02.908Z,22.50
2019-02-02T12:35:30.568Z,25.93
2019-02-02T12:37:58.927Z,22.97
2019-02-02T12:40:27.995Z,23.60
2019-02-02T12:42:56.801Z,25.37
2019-02-02T12:45:32.373Z,21.53
2019-02-02T12:48:01.312Z,22.80
2019-02-02T12:50:30.123Z,23.63
2019-02-02T12:52:58.598Z,23.33
2019-02-02T12:55:27.012Z,24.80
2019-02-02T12:57:56.249Z,28.07
2019-02-02T13:00:24.353Z,21.47
2019-02-02T13:02:52.370Z,23.37
2019-02-02T13:05:21.794Z,24.20
2019-02-02T13:07:50.778Z,22.23
2019-02-02T13:10:24.674Z,25.03
2019-02-02T13:12:53.390Z,25.20
2019-02-02T13:15:23.492Z,23.70
2019-02-02T13:17:52.090Z,24.00
2019-02-02T13:20:20.107Z,23.93
2019-02-02T13:22:49.846Z,22.20
2019-02-02T13:25:20.090Z,23.87
2019-02-02T13:27:48.903Z,20.73
2019-02-02T13:30:21.968Z,22.27
2019-02-02T13:32:50.743Z,22.20
2019-02-02T13:35:19.540Z,20.47
2019-02-02T13:37:49.627Z,21.57
2019-02-02T13:40:19.658Z,17.37
2019-02-02T13:42:52.628Z,18.67
2019-02-02T13:45:21.725Z,19.50
2019-02-02T13:47:50.742Z,20.67
2019-02-02T13:50:19.150Z,19.60
2019-02-02T13:52:47.449Z,20.47
2019-02-02T13:55:15.285Z,14.97
2019-02-02T13:57:44.045Z,13.27
2019-02-02T14:00:16.423Z,16.63
2019-02-02T14:02:44.686Z,14.23
2019-02-02T14:05:14.073Z,17.13
2019-02-02T14:07:42.997Z,15.40
2019-02-02T14:10:17.807Z,15.17
2019-02-02T14:12:45.833Z,12.83
2019-02-02T14:15:14.056Z,16.10
2019-02-02T14:17:42.449Z,15.27
2019-02-02T14:20:10.449Z,13.80
2019-02-02T14:22:37.949Z,15.23
2019-02-02T14:25:06.217Z,11.90
2019-02-02T14:27:34.333Z,11.63
2019-02-02T14:30:02.224Z,12.30
2019-02-02T14:32:30.224Z,13.03
2019-02-02T14:34:58.825Z,13.40
2019-02-02T14:37:26.281Z,12.87
2019-02-02T14:39:56.921Z,13.73
2019-02-02T14:42:25.283Z,15.17
2019-02-02T14:44:54.210Z,17.83
2019-02-02T14:47:23.305Z,18.77
2019-02-02T14:49:51.234Z,21.97
2019-02-02T14:52:19.527Z,18.37
2019-02-02T14:54:46.948Z,19.03
2019-02-02T14:57:14.567Z,19.03
2019-02-02T14:59:42.069Z,16.23
2019-02-02T15:02:16.163Z,17.10
2019-02-02T15:04:44.561Z,16.27
2019-02-02T15:07:12.623Z,28.97
2019-02-02T15:09:41.345Z,20.87
2019-02-02T15:12:09.107Z,19.57
2019-02-02T15:14:37.784Z,29.87
2019-02-02T15:17:05.374Z,30.70
2019-02-02T15:19:34.154Z,30.43
2019-02-02T15:22:01.943Z,22.30
2019-02-02T15:24:29.525Z,34.00
2019-02-02T15:26:58.916Z,32.27
2019-02-02T15:29:27.538Z,28.13
2019-02-02T15:31:56.175Z,34.07
2019-02-02T15:34:24.018Z,36.07
2019-02-02T15:36:51.917Z,28.17
2019-02-02T15:39:40.428Z,49.07
2019-02-02T15:42:13.797Z,41.63
2019-02-02T15:44:43.941Z,49.13
2019-02-02T15:47:19.286Z,24.50
2019-02-02T15:49:56.733Z,20.67
2019-02-02T15:52:34.211Z,17.23
2019-02-02T15:55:10.211Z,22.43
2019-02-02T15:58:00.572Z,21.87
2019-02-02T16:00:51.861Z,17.90
2019-02-02T16:03:30.941Z,19.07
2019-02-02T16:06:12.998Z,24.73
2019-02-02T16:09:05.107Z,26.67
2019-02-02T16:12:13.826Z,36.57
2019-02-02T16:14:48.964Z,29.20
2019-02-02T16:17:31.939Z,23.33
2019-02-02T16:20:16.256Z,28.23
2019-02-02T16:22:53.034Z,30.13
2019-02-02T16:25:34.107Z,36.07
2019-02-02T16:28:01.611Z,54.23
2019-02-02T16:30:30.194Z,40.53
2019-02-02T16:32:58.364Z,26.67
2019-02-02T16:35:26.258Z,21.63
2019-02-02T16:37:54.536Z,20.77
2019-02-02T16:40:25.556Z,20.50
2019-02-02T16:42:54.164Z,21.07
2019-02-02T16:45:25.675Z,23.83
2019-02-02T16:47:54.521Z,27.20
2019-02-02T16:50:26.003Z,24.63
2019-02-02T16:52:56.479Z,25.33
2019-02-02T16:55:24.293Z,23.67
2019-02-02T16:57:53.205Z,24.90
2019-02-02T17:00:24.655Z,22.00
2019-02-02T17:02:53.268Z,23.67
2019-02-02T17:05:21.567Z,22.67
2019-02-02T17:07:50.035Z,23.80
2019-02-02T17:10:24.791Z,22.47
2019-02-02T17:12:53.775Z,23.70
2019-02-02T17:15:24.160Z,25.23
2019-02-02T17:17:53.105Z,31.13
2019-02-02T17:20:27.765Z,27.50
2019-02-02T17:22:56.441Z,26.23
2019-02-02T17:25:26.562Z,26.57
2019-02-02T17:27:54.772Z,29.23
2019-02-02T17:30:23.528Z,25.90
2019-02-02T17:32:54.928Z,32.53
2019-02-02T17:35:22.877Z,28.83
2019-02-02T17:37:51.699Z,34.73
2019-02-02T17:40:22.576Z,40.43
2019-02-02T17:42:51.068Z,34.60
2019-02-02T17:45:19.221Z,30.13
2019-02-02T17:47:48.571Z,32.17
2019-02-02T17:50:20.565Z,31.13
2019-02-02T17:52:50.686Z,33.03
2019-02-02T17:55:21.468Z,39.17
2019-02-02T17:57:56.409Z,38.83
2019-02-02T18:00:50.091Z,34.93
2019-02-02T18:03:18.430Z,31.27
2019-02-02T18:05:46.572Z,36.17
2019-02-02T18:08:15.519Z,85.57
2019-02-02T18:10:44.546Z,67.23
2019-02-02T18:13:12.985Z,62.57
2019-02-02T18:15:40.856Z,54.57
2019-02-02T18:18:09.136Z,57.63
2019-02-02T18:20:38.160Z,51.33
2019-02-02T18:23:07.019Z,45.30
2019-02-02T18:25:38.714Z,47.80
2019-02-02T18:28:06.934Z,57.13
2019-02-02T18:30:38.426Z,54.97
2019-02-02T18:33:07.063Z,60.33
2019-02-02T18:35:37.244Z,60.07
2019-02-02T18:38:05.588Z,60.10
2019-02-02T18:40:34.089Z,51.10
2019-02-02T18:43:02.928Z,54.47
2019-02-02T18:45:31.875Z,47.50
2019-02-02T18:47:59.774Z,46.47
2019-02-02T18:50:27.538Z,47.57
2019-02-02T18:52:55.787Z,50.50
2019-02-02T18:55:38.093Z,50.30
2019-02-02T18:58:06.615Z,53.13
2019-02-02T19:00:37.209Z,47.00
2019-02-02T19:03:08.306Z,43.93
2019-02-02T19:05:38.676Z,47.10
2019-02-02T19:08:07.807Z,51.63
2019-02-02T19:10:38.973Z,46.80
2019-02-02T19:13:08.252Z,45.53
2019-02-02T19:15:37.473Z,43.67
2019-02-02T19:18:07.449Z,44.83
2019-02-02T19:20:36.272Z,49.60
2019-02-02T19:23:07.559Z,47.20
2019-02-02T19:25:38.108Z,55.40
2019-02-02T19:28:10.310Z,66.33
2019-02-02T19:30:45.464Z,55.03
2019-02-02T19:33:17.113Z,52.20
2019-02-02T19:35:48.028Z,48.40
2019-02-02T19:38:19.805Z,49.13
2019-02-02T19:40:52.366Z,48.13
2019-02-02T19:43:25.748Z,43.50
2019-02-02T19:45:58.459Z,39.90
2019-02-02T19:48:32.650Z,43.53
2019-02-02T19:51:04.103Z,46.30
2019-02-02T19:53:37.422Z,41.23
2019-02-02T19:56:11.231Z,40.17
2019-02-02T19:58:44.024Z,42.70
2019-02-02T20:01:15.698Z,50.50
2019-02-02T20:03:46.514Z,39.43
2019-02-02T20:06:19.047Z,36.63
2019-02-02T20:08:49.593Z,37.40
2019-02-02T20:11:24.639Z,39.23
2019-02-02T20:13:59.918Z,41.47
2019-02-02T20:16:33.030Z,37.23
2019-02-02T20:19:07.146Z,41.87
2019-02-02T20:21:44.513Z,38.53
2019-02-02T20:24:16.457Z,42.27
2019-02-02T20:26:52.519Z,45.27
2019-02-02T20:29:28.373Z,33.20
2019-02-02T20:32:01.259Z,44.97
2019-02-02T20:34:36.347Z,39.30
2019-02-02T20:37:08.850Z,35.60
2019-02-02T20:39:42.690Z,29.27
2019-02-02T20:42:19.921Z,32.97
2019-02-02T20:44:55.321Z,33.90
2019-02-02T20:47:28.882Z,32.37
2019-02-02T20:50:02.672Z,33.47
2019-02-02T20:52:46.626Z,34.57
2019-02-02T20:55:13.494Z,34.57
2019-02-02T20:57:47.280Z,36.80
2019-02-02T21:00:22.410Z,34.43
2019-02-02T21:02:53.955Z,35.83
2019-02-02T21:05:25.574Z,36.97
2019-02-02T21:07:58.298Z,36.57
2019-02-02T21:10:28.227Z,35.17
2019-02-02T21:12:58.684Z,38.17
2019-02-02T21:15:30.931Z,39.50
2019-02-02T21:18:04.506Z,37.03
2019-02-02T21:20:37.527Z,38.73
2019-02-02T21:23:08.027Z,37.03
2019-02-02T21:25:41.106Z,42.53
2019-02-02T21:28:14.194Z,38.10
2019-02-02T21:30:46.521Z,36.77
2019-02-02T21:33:18.147Z,35.07
2019-02-02T21:35:49.275Z,36.73
2019-02-02T21:38:19.722Z,35.77
2019-02-02T21:40:51.471Z,33.30
2019-02-02T21:43:22.669Z,35.73
2019-02-02T21:45:52.363Z,33.33
2019-02-02T21:48:22.267Z,32.60
2019-02-02T21:50:54.312Z,32.53
2019-02-02T21:53:24.453Z,32.27
2019-02-02T21:55:54.304Z,34.23
2019-02-02T21:58:22.752Z,32.87
2019-02-02T22:00:52.479Z,34.17
2019-02-02T22:03:21.380Z,32.37
2019-02-02T22:05:50.028Z,32.17
2019-02-02T22:08:17.489Z,33.13
2019-02-02T22:10:45.994Z,33.47
2019-02-02T22:13:14.540Z,33.37
2019-02-02T22:15:44.194Z,32.50
2019-02-02T22:18:12.682Z,33.70
2019-02-02T22:20:41.672Z,34.20
2019-02-02T22:23:10.578Z,31.03
2019-02-02T22:25:40.364Z,30.83
2019-02-02T22:28:08.310Z,32.20
2019-02-02T22:30:36.780Z,36.27
2019-02-02T22:33:05.234Z,33.33
2019-02-02T22:35:33.867Z,31.43
2019-02-02T22:38:01.829Z,31.50
2019-02-02T22:40:29.799Z,33.13
2019-02-02T22:42:57.332Z,32.23
2019-02-02T22:45:25.136Z,34.20
2019-02-02T22:47:52.763Z,36.73
2019-02-02T22:50:22.963Z,34.13
2019-02-02T22:52:51.390Z,36.40
2019-02-02T22:55:19.979Z,36.33
2019-02-02T22:57:47.702Z,36.73
2019-02-02T23:00:53.189Z,35.47
2019-02-02T23:03:33.551Z,35.43
2019-02-02T23:06:50.567Z,40.57
2019-02-02T23:10:31.242Z,37.60
2019-02-02T23:13:59.417Z,35.97
2019-02-02T23:16:28.953Z,36.17
2019-02-02T23:18:58.089Z,40.93
2019-02-02T23:21:26.242Z,40.07
2019-02-02T23:23:53.975Z,34.47
2019-02-02T23:26:21.988Z,38.90
2019-02-02T23:28:49.479Z,39.17
2019-02-02T23:31:17.018Z,40.20
2019-02-02T23:33:44.357Z,43.50
2019-02-02T23:36:12.023Z,41.40
2019-02-02T23:38:39.426Z,41.97
2019-02-02T23:41:07.242Z,42.10
2019-02-02T23:43:34.986Z,43.23
2019-02-02T23:46:02.801Z,45.07
2019-02-02T23:48:31.278Z,39.23
2019-02-02T23:50:59.450Z,45.13
2019-02-02T23:53:27.725Z,41.63
2019-02-02T23:55:55.761Z,43.13
2019-02-02T23:58:23.763Z,44.30
